Terminal Aerodrome Forecast
Issued by NWS St Louis, MO

Home | Current Version | Previous Version | Text Only | Print | Product List | Glossary On
Versions: 1 2 3 4 5 6 7 8 9 10 11 12 13 14 15 16
000
FTUS43 KLSX 201500 AAA
TAFCOU
TAF AMD
KCOU 201546Z 2016/2112 07012KT 3SM -RA BR SCT007 BKN014
      TEMPO 2016/2018 2SM RA BR BKN007
     FM201800 05012KT 6SM -RA BR BKN006 OVC012
     FM202000 02006KT P6SM SCT007 OVC015=

USA.gov is the U.S. government's official web portal to all federal, state and local government web resources and services.